Main page
METAR-TAF:

METAR-TAF

Airports :

Biarritz, France

Biarritz Pays Basque Airport

latitude: 43-28N, longitude: 001-32W, elevation: 75 m

Current weather observation

The report was made 15 minutes ago, at 03:30 UTC
Wind 4 kt from the Southeast
Temperature 9°C
Humidity 93%
Pressure 1023 hPa
Visibility 10 km or more
no clouds below 1500 m and no cumulonimbus

METAR: LFBZ 200330Z AUTO 14004KT CAVOK 09/08 Q1023 TEMPO 1500 BCFG

Time: 05:45 (03:45 UTC)

Forecast

The report was made 4 hours and 45 minutes ago, at 23:00 UTC
Forecast valid from 20 at 00 UTC to 20 at 24 UTC
Wind 5 kt from the East
Visibility 10 km or more
no clouds below 1500 m and no cumulonimbus
Probability 30%
from 20 at 02 UTC to 20 at 06 UTC
Visibility: 1500 m
patches of fog

TAF: LFBZ 192300Z 2000/2024 09005KT CAVOK PROB30 2002/2006 1500 BCFG

Weather observations and forecasts of more than 4000 airports (METAR and TAF reports).

The available stations are represented by yellow and red dots on the map.

Hover mouse over dot to see the name of the station.

Then click to see weather observations and forecasts.

To change the map : click on the green buttons with a black cross to zoom in, on the green button with a dash to zoom out, or on the green arrows for adjacent maps.


METAR-TAF: